Terminal Aerodrome Forecast
Issued by NWS Twin Cities, MN

Home | Current Version | Previous Version | Text Only | Print | Product List | Glossary Off
Versions: 1 2 3 4 5 6 7 8 9 10 11 12 13 14 15 16 17 18 19 20 21 22 23 24 25 26

042
FTUS43 KMPX 221739
TAFMSP
TAF
KMSP 221739Z 2218/2324 29011G17KT P6SM SCT050 SCT100
      TEMPO 2219/2223 BKN050 BKN100
     FM230100 34005KT P6SM SCT050 BKN090
     FM231400 35012KT P6SM OVC035 PROB30 2316/2322 -SHRA=

USA.gov is the U.S. government's official web portal to all federal, state and local government web resources and services.